Time;durP1;ratioP1;P1;durP2;ratioP2;P2;SDS_P1;SDS_P2;PMS_P1;PMS_P2;Temp;Humidity;BMP_temperature;BMP_pressure;BME280_temperature;BME280_humidity;BME280_pressure;Samples;Min_cycle;Max_cycle;Signal;HPM_P1;HPM_P2
2022/01/16 00:00:08;;;;;;;142.40;47.88;;;2.00;99.90;;;1.66;69.94;99680.34;5026958;28;20043;-81
2022/01/16 00:05:28;;;;;;;122.72;46.25;;;1.90;99.90;;;1.47;69.94;99691.69;5035407;28;20040;-81
2022/01/16 00:07:54;;;;;;;130.30;45.00;;;1.90;99.90;;;1.50;70.36;99678.78;5034779;28;20227;-81
2022/01/16 00:10:20;;;;;;;165.90;48.85;;;1.90;99.90;;;1.60;70.13;99677.63;5019100;28;20037;-81
2022/01/16 00:12:49;;;;;;;141.52;47.40;;;1.90;99.90;;;1.58;69.96;99680.50;5024146;28;20488;-81
2022/01/16 00:15:17;;;;;;;129.02;46.90;;;1.90;99.90;;;1.57;69.60;99675.34;5035220;28;20041;-81
2022/01/16 00:17:54;;;;;;;143.38;50.90;;;1.80;99.90;;;1.54;69.53;99673.06;5023792;28;20045;-81
2022/01/16 00:20:21;;;;;;;137.45;50.22;;;1.80;99.90;;;1.47;69.72;99673.00;5024111;28;20076;-81
2022/01/16 00:22:48;;;;;;;146.68;56.55;;;1.80;99.90;;;1.55;69.75;99662.16;5038073;28;20045;-81
2022/01/16 00:25:17;;;;;;;166.80;55.53;;;1.80;99.90;;;1.57;69.89;99643.25;5016899;28;20057;-81
2022/01/16 00:27:43;;;;;;;146.55;50.17;;;1.90;99.90;;;1.64;70.04;99652.16;5034149;28;20116;-81
2022/01/16 00:30:10;;;;;;;179.23;56.10;;;1.80;99.90;;;1.59;69.76;99658.06;5034917;28;20049;-81
2022/01/16 00:32:37;;;;;;;141.98;48.42;;;1.90;99.90;;;1.71;69.94;99642.31;5009601;28;20041;-81
2022/01/16 00:35:04;;;;;;;149.50;49.90;;;1.90;99.90;;;1.69;69.71;99657.75;5051947;28;20049;-81
2022/01/16 00:37:30;;;;;;;133.00;48.22;;;1.90;99.90;;;1.64;69.49;99647.63;5005369;28;20055;-81
2022/01/16 00:39:56;;;;;;;145.50;48.55;;;1.90;99.90;;;1.63;69.22;99621.06;5002332;28;20075;-81
2022/01/16 00:42:22;;;;;;;154.48;55.75;;;1.90;99.90;;;1.57;68.92;99598.59;5024275;28;20095;-80
2022/01/16 00:44:48;;;;;;;154.30;53.03;;;1.90;99.90;;;1.52;68.86;99646.50;5016924;28;20447;-81
2022/01/16 00:47:14;;;;;;;152.57;56.85;;;1.80;99.90;;;1.40;68.68;99654.25;5004047;28;20084;-81
2022/01/16 00:49:41;;;;;;;149.55;54.67;;;1.70;99.90;;;1.38;68.75;99658.13;5023558;28;20154;-81
2022/01/16 00:52:07;;;;;;;175.20;59.08;;;1.70;99.90;;;1.30;68.26;99670.59;5035406;28;20037;-81
2022/01/16 00:54:33;;;;;;;155.88;59.60;;;1.60;99.90;;;1.16;68.74;99668.81;5019835;28;20617;-81
2022/01/16 00:57:00;;;;;;;133.27;51.60;;;1.50;99.90;;;1.14;67.99;99660.16;5032945;28;20125;-81
2022/01/16 00:59:25;;;;;;;115.00;46.92;;;1.40;99.90;;;0.93;67.93;99628.94;5019685;28;20044;-81
2022/01/16 01:01:51;;;;;;;132.50;47.83;;;1.30;99.90;;;0.85;67.38;99615.69;5004683;28;20040;-81
2022/01/16 01:04:18;;;;;;;139.45;50.65;;;1.10;99.90;;;0.63;67.39;99637.03;5033645;28;20068;-81
2022/01/16 01:06:47;;;;;;;125.45;49.40;;;1.00;99.90;;;0.46;67.17;99645.47;5020340;28;20067;-81
2022/01/16 01:09:13;;;;;;;132.95;50.88;;;0.90;99.90;;;0.17;68.06;99661.31;5036722;28;20071;-80
2022/01/16 01:11:41;;;;;;;151.10;55.72;;;0.70;99.90;;;-0.01;68.10;99667.03;5035494;28;20092;-81
2022/01/16 01:16:53;;;;;;;171.27;66.45;;;0.30;99.90;;;-0.24;68.37;99607.63;5015277;28;20051;-81
2022/01/16 01:19:24;;;;;;;181.00;66.68;;;0.20;99.90;;;-0.36;68.38;99639.25;5024362;28;20500;-81
2022/01/16 01:21:50;;;;;;;170.40;62.42;;;0.10;99.90;;;-0.46;68.14;99623.53;5018504;28;20075;-81
2022/01/16 01:24:16;;;;;;;187.27;66.03;;;0.00;99.90;;;-0.47;67.77;99608.53;5003321;28;20044;-81
2022/01/16 01:26:51;;;;;;;172.73;62.45;;;-0.10;99.90;;;-0.64;68.42;99640.84;5002556;28;20135;-81
2022/01/16 01:29:20;;;;;;;175.07;65.32;;;-0.20;99.90;;;-0.77;68.16;99609.50;5028800;28;20037;-80
2022/01/16 01:31:46;;;;;;;175.60;62.92;;;-0.30;99.90;;;-0.79;68.29;99638.16;5051148;28;20041;-80
2022/01/16 01:34:12;;;;;;;180.77;67.07;;;-0.40;99.90;;;-0.93;68.83;99557.22;5004901;28;20040;-80
2022/01/16 01:36:38;;;;;;;187.70;73.22;;;-0.50;99.90;;;-1.04;68.46;99483.06;5019975;28;20556;-80
2022/01/16 01:39:04;;;;;;;169.27;63.38;;;-0.60;99.90;;;-1.17;68.89;99505.84;5018819;28;20415;-80
2022/01/16 01:41:30;;;;;;;163.50;63.20;;;-0.70;99.90;;;-1.22;69.37;99505.56;5017957;28;20108;-80
2022/01/16 01:52:10;;;;;;;163.35;64.20;;;-1.00;99.90;;;-1.49;68.43;99522.06;5032571;28;20420;-80
2022/01/16 01:54:36;;;;;;;176.68;67.15;;;-1.10;99.90;;;-1.60;68.72;99548.09;5006470;28;20121;-80
2022/01/16 01:57:02;;;;;;;159.93;57.42;;;-1.20;99.90;;;-1.76;68.76;99532.22;5009500;28;20068;-80
2022/01/16 01:59:28;;;;;;;135.77;49.00;;;-1.30;99.90;;;-1.75;70.00;99520.59;5037977;28;20123;-80
2022/01/16 02:01:54;;;;;;;145.07;49.83;;;-1.30;99.90;;;-1.77;70.04;99541.22;5017845;28;20072;-80
2022/01/16 02:04:20;;;;;;;129.25;48.05;;;-1.30;99.90;;;-1.82;70.58;99532.94;5003559;28;20515;-80
2022/01/16 02:06:46;;;;;;;127.82;47.78;;;-1.40;99.90;;;-1.72;70.23;99546.00;5020328;28;20040;-80
2022/01/16 02:09:12;;;;;;;125.72;46.95;;;-1.40;99.90;;;-1.86;70.75;99524.47;5039397;28;20105;-80
2022/01/16 02:11:41;;;;;;;148.30;54.60;;;-1.40;99.90;;;-1.84;71.01;99516.31;5032410;28;20045;-80
2022/01/16 02:28:01;;;;;;;214.75;69.90;;;-1.40;99.90;;;-1.78;73.44;99548.38;5024966;28;20098;-80
2022/01/16 02:33:23;;;;;;;258.20;68.88;;;-1.20;99.90;;;-1.46;74.76;99564.28;5020424;28;20033;-80
2022/01/16 02:35:46;;;;;;;222.32;66.53;;;-1.10;99.90;;;-1.23;74.40;99564.28;5037457;28;20458;-80
2022/01/16 02:38:12;;;;;;;228.50;65.28;;;-0.90;99.90;;;-1.14;74.04;99571.22;5035466;28;20041;-80
2022/01/16 02:40:42;;;;;;;238.95;65.30;;;-0.80;99.90;;;-1.05;74.29;99577.28;5034840;28;20048;-80
2022/01/16 02:43:08;;;;;;;262.85;62.70;;;-0.70;99.90;;;-0.94;74.20;99582.16;5032952;28;20107;-80
2022/01/16 02:45:44;;;;;;;274.55;63.47;;;-0.60;99.90;;;-0.87;74.14;99569.78;5020287;28;20090;-80
2022/01/16 02:48:10;;;;;;;212.73;61.45;;;-0.60;99.90;;;-0.82;74.18;99553.28;5005884;28;20446;-80
2022/01/16 02:50:36;;;;;;;210.80;62.08;;;-0.50;99.90;;;-0.75;73.80;99554.22;5015482;28;20060;-81
2022/01/16 02:53:10;;;;;;;250.15;61.17;;;-0.40;99.90;;;-0.70;73.24;99565.16;5014293;28;20045;-81
2022/01/16 02:55:41;;;;;;;257.67;57.78;;;-0.40;99.90;;;-0.71;73.24;99552.84;5006792;28;20420;-81
2022/01/16 02:58:07;;;;;;;226.70;55.15;;;-0.30;99.90;;;-0.68;73.46;99544.47;5034818;28;20447;-80
2022/01/16 03:00:33;;;;;;;361.75;61.80;;;-0.30;99.90;;;-0.67;73.18;99554.94;5001077;28;20037;-80
2022/01/16 03:02:59;;;;;;;258.80;55.28;;;-0.30;99.90;;;-0.61;73.27;99564.06;5002658;28;20072;-80
2022/01/16 03:05:25;;;;;;;330.70;58.95;;;-0.30;99.90;;;-0.66;73.05;99561.13;5030940;28;20071;-80
2022/01/16 03:07:50;;;;;;;278.15;57.72;;;-0.30;99.90;;;-0.71;73.41;99551.00;5020256;28;20037;-80
2022/01/16 03:13:05;;;;;;;328.05;59.42;;;-0.30;99.90;;;-0.64;72.89;99542.25;5034377;28;20068;-80
2022/01/16 03:15:31;;;;;;;250.25;54.45;;;-0.30;99.90;;;-0.61;72.93;99544.56;5003024;28;20061;-80
2022/01/16 03:23:18;;;;;;;205.13;54.42;;;-0.20;99.90;;;-0.49;73.28;99535.09;5023083;28;20127;-80
2022/01/16 03:25:44;;;;;;;246.70;56.10;;;-0.10;99.90;;;-0.36;72.68;99535.28;5001105;28;20140;-80
2022/01/16 03:28:10;;;;;;;184.70;57.63;;;-0.10;99.90;;;-0.29;72.61;99538.84;5017812;28;20053;-80
2022/01/16 03:30:37;;;;;;;351.60;61.55;;;-0.10;99.90;;;-0.33;72.53;99540.25;5034023;28;20574;-80
2022/01/16 03:33:03;;;;;;;258.90;59.50;;;0.00;99.90;;;-0.35;72.45;99531.63;5033167;28;20059;-80
2022/01/16 03:35:29;;;;;;;263.55;61.92;;;0.00;99.90;;;-0.36;72.28;99527.28;5032334;28;20045;-80
2022/01/16 03:37:55;;;;;;;195.52;60.42;;;0.00;99.90;;;-0.31;71.82;99513.41;5014645;28;20053;-80
2022/01/16 03:40:22;;;;;;;245.85;58.95;;;0.10;99.90;;;-0.36;72.10;99502.47;5006331;28;20033;-80
2022/01/16 03:42:48;;;;;;;227.55;57.30;;;0.10;99.90;;;-0.37;72.44;99501.63;5006877;28;20037;-80
2022/01/16 03:45:15;;;;;;;297.83;60.45;;;0.10;99.90;;;-0.19;71.49;99503.09;5031676;28;20597;-80
2022/01/16 03:47:40;;;;;;;199.45;56.65;;;0.10;99.90;;;-0.27;71.90;99493.34;5033321;28;20036;-80
2022/01/16 03:50:07;;;;;;;306.23;59.85;;;0.10;99.90;;;-0.31;71.34;99498.22;5015420;28;20179;-80
2022/01/16 03:52:33;;;;;;;271.80;60.45;;;0.10;99.90;;;-0.32;71.51;99490.44;5037080;28;20045;-80
2022/01/16 03:54:59;;;;;;;251.40;60.15;;;0.10;99.90;;;-0.35;71.24;99469.47;5004052;28;20565;-80
2022/01/16 03:57:25;;;;;;;212.30;57.42;;;0.00;99.90;;;-0.47;71.29;99464.59;5001143;28;20147;-80
2022/01/16 03:59:51;;;;;;;274.20;54.85;;;0.00;99.90;;;-0.55;71.13;99467.38;5024451;28;20116;-80
2022/01/16 04:02:17;;;;;;;281.63;55.75;;;-0.10;99.90;;;-0.68;71.16;99476.03;5038533;28;20075;-80
2022/01/16 04:04:43;;;;;;;206.35;54.13;;;-0.10;99.90;;;-0.77;71.36;99477.13;5018078;28;20063;-80
2022/01/16 04:07:13;;;;;;;157.73;52.05;;;-0.20;99.90;;;-0.79;71.30;99479.16;5005423;28;20039;-80
2022/01/16 04:09:40;;;;;;;233.48;52.70;;;-0.20;99.90;;;-0.83;71.50;99485.84;5039760;28;20468;-80
2022/01/16 04:12:08;;;;;;;223.32;50.78;;;-0.30;99.90;;;-0.87;71.27;99479.22;5023135;28;20037;-80
2022/01/16 04:17:17;;;;;;;184.52;51.08;;;-0.30;99.90;;;-0.73;71.45;99474.94;5021570;28;20110;-80
2022/01/16 04:19:44;;;;;;;213.20;52.22;;;-0.30;99.90;;;-0.69;71.01;99473.53;5038695;28;20837;-80
2022/01/16 04:22:10;;;;;;;287.38;57.15;;;-0.30;99.90;;;-0.70;71.24;99483.38;5007447;28;20152;-80
2022/01/16 04:24:36;;;;;;;215.80;61.85;;;-0.30;99.90;;;-0.74;71.33;99484.78;5022775;28;20112;-80
2022/01/16 04:27:02;;;;;;;195.65;57.13;;;-0.30;99.90;;;-0.66;71.23;99481.19;5022944;28;20148;-80
2022/01/16 04:29:28;;;;;;;206.52;56.30;;;-0.30;99.90;;;-0.69;70.96;99476.19;5036757;28;20059;-80
2022/01/16 04:31:54;;;;;;;167.85;58.03;;;-0.20;99.90;;;-0.70;71.28;99475.38;5003205;28;20044;-80
2022/01/16 04:34:20;;;;;;;316.60;62.75;;;-0.30;99.90;;;-0.68;71.05;99480.53;5006831;28;20045;-80
2022/01/16 04:36:46;;;;;;;169.30;51.17;;;-0.20;99.90;;;-0.73;70.94;99475.75;5001093;28;20072;-80
2022/01/16 04:39:15;;;;;;;191.05;56.88;;;-0.30;99.90;;;-0.69;70.83;99484.19;5021139;28;20041;-80
2022/01/16 04:44:26;;;;;;;230.43;54.08;;;-0.30;99.90;;;-0.72;71.00;99460.59;5028221;28;20401;-80
2022/01/16 04:46:53;;;;;;;267.98;58.35;;;-0.30;99.90;;;-0.69;70.67;99465.53;5036967;28;20392;-80
2022/01/16 04:49:19;;;;;;;194.15;50.88;;;-0.30;99.90;;;-0.70;70.64;99462.06;5035839;28;20047;-80
2022/01/16 04:51:45;;;;;;;177.85;53.95;;;-0.30;99.90;;;-0.73;70.57;99464.28;5019783;28;20124;-80
2022/01/16 04:54:11;;;;;;;199.57;51.35;;;-0.30;99.90;;;-0.74;70.96;99471.44;5025615;28;20706;-80
2022/01/16 04:56:37;;;;;;;154.25;51.95;;;-0.30;99.90;;;-0.74;70.76;99468.78;5022384;28;20043;-80
2022/01/16 04:59:03;;;;;;;160.85;50.03;;;-0.30;99.90;;;-0.77;70.71;99460.31;5036670;28;20045;-80
2022/01/16 05:01:29;;;;;;;180.40;51.78;;;-0.30;99.90;;;-0.84;70.53;99456.72;5023721;28;20201;-81
2022/01/16 05:03:55;;;;;;;241.88;52.20;;;-0.30;99.90;;;-0.91;70.91;99452.16;5037088;28;20463;-80
2022/01/16 05:06:21;;;;;;;161.38;48.88;;;-0.40;99.90;;;-0.96;70.95;99451.06;5036812;28;20131;-80
2022/01/16 05:08:47;;;;;;;142.52;48.17;;;-0.40;99.90;;;-0.90;70.33;99448.47;5018083;28;20088;-80
2022/01/16 05:11:15;;;;;;;227.02;50.85;;;-0.40;99.90;;;-0.90;70.79;99451.13;5032559;28;20057;-80
2022/01/16 05:18:53;;;;;;;215.80;53.17;;;-0.40;99.90;;;-0.97;70.23;99446.72;5051513;28;20052;-81
2022/01/16 05:21:20;;;;;;;221.25;54.70;;;-0.40;99.90;;;-0.99;70.47;99448.72;5003178;28;20496;-80
2022/01/16 05:23:46;;;;;;;163.30;53.85;;;-0.50;99.90;;;-1.00;70.66;99437.25;5017410;28;20065;-80
2022/01/16 05:26:13;;;;;;;143.18;50.22;;;-0.50;99.90;;;-0.93;70.50;99437.34;5022377;28;20052;-80
2022/01/16 05:28:39;;;;;;;224.65;52.03;;;-0.50;99.90;;;-1.00;70.27;99429.25;5038234;28;20041;-80
2022/01/16 05:31:05;;;;;;;174.75;52.30;;;-0.50;99.90;;;-1.03;70.16;99426.16;5017704;28;20125;-80
2022/01/16 05:33:31;;;;;;;202.32;56.97;;;-0.50;99.90;;;-0.97;70.56;99434.22;5014682;28;20472;-80
2022/01/16 05:35:58;;;;;;;226.48;63.38;;;-0.50;99.90;;;-1.01;70.10;99427.63;5021377;28;20028;-80
2022/01/16 05:38:24;;;;;;;184.27;69.97;;;-0.50;99.90;;;-1.01;69.99;99426.81;5020739;28;20083;-80
2022/01/16 05:40:50;;;;;;;237.88;76.15;;;-0.50;99.90;;;-1.02;70.20;99411.81;5018354;28;20064;-80
2022/01/16 05:43:16;;;;;;;280.13;84.03;;;-0.60;99.90;;;-1.02;70.37;99411.81;5021164;28;20037;-80
2022/01/16 05:45:42;;;;;;;295.73;67.10;;;-0.60;99.90;;;-1.04;69.76;99412.03;5005360;28;20051;-80
2022/01/16 05:48:07;;;;;;;236.75;68.65;;;-0.60;99.90;;;-1.05;69.77;99415.69;5038097;28;20072;-80
2022/01/16 05:50:34;;;;;;;240.45;68.40;;;-0.60;99.90;;;-1.09;70.25;99422.41;5004848;28;20488;-80
2022/01/16 05:53:00;;;;;;;196.68;66.10;;;-0.70;99.90;;;-1.18;70.07;99432.28;5037336;28;20079;-80
2022/01/16 05:55:29;;;;;;;265.98;58.85;;;-0.60;99.90;;;-1.22;70.18;99416.84;5022520;28;20152;-80
2022/01/16 05:57:55;;;;;;;182.13;56.25;;;-0.70;99.90;;;-1.28;70.16;99426.41;5037933;28;20037;-80
2022/01/16 06:00:21;;;;;;;169.48;53.83;;;-0.70;99.90;;;-1.35;70.17;99422.81;5021233;28;20099;-80
2022/01/16 06:02:47;;;;;;;199.65;52.53;;;-0.70;99.90;;;-1.41;70.13;99421.69;5039986;28;20038;-80
2022/01/16 06:05:13;;;;;;;168.77;55.17;;;-0.80;99.90;;;-1.45;70.34;99416.91;5020356;28;20463;-80
2022/01/16 06:07:44;;;;;;;244.27;58.15;;;-0.80;99.90;;;-1.50;70.14;99414.81;5023638;28;20033;-81
2022/01/16 06:10:11;;;;;;;137.15;56.88;;;-0.90;99.90;;;-1.51;70.17;99421.13;5038007;28;20403;-80
2022/01/16 06:12:37;;;;;;;162.50;49.72;;;-0.90;99.90;;;-1.48;69.91;99415.44;5022905;28;20069;-80
2022/01/16 06:15:05;;;;;;;145.20;52.88;;;-0.90;99.90;;;-1.49;69.89;99426.28;5010031;28;20465;-80
2022/01/16 06:17:31;;;;;;;152.82;48.17;;;-0.90;99.90;;;-1.45;69.82;99425.75;5039132;28;20049;-80
2022/01/16 06:19:58;;;;;;;202.25;49.90;;;-0.90;99.90;;;-1.52;70.11;99418.66;5039602;28;20087;-80
2022/01/16 06:22:23;;;;;;;161.43;49.08;;;-0.90;99.90;;;-1.55;70.13;99419.84;5033278;28;20572;-80
2022/01/16 06:24:49;;;;;;;182.65;49.42;;;-1.00;99.90;;;-1.52;70.21;99408.03;5021303;28;20047;-80
2022/01/16 06:27:18;;;;;;;136.05;48.03;;;-1.00;99.90;;;-1.48;69.87;99411.97;5029549;28;20144;-80
2022/01/16 06:29:45;;;;;;;156.35;49.92;;;-1.00;99.90;;;-1.50;70.11;99411.31;5001902;28;20500;-80
2022/01/16 06:32:11;;;;;;;154.85;49.10;;;-1.00;99.90;;;-1.41;69.85;99404.91;5033423;28;20116;-80
2022/01/16 06:34:37;;;;;;;149.68;50.53;;;-0.90;99.90;;;-1.41;69.45;99407.56;5051688;28;20084;-80
2022/01/16 06:37:03;;;;;;;136.02;51.67;;;-0.90;99.90;;;-1.33;69.70;99407.50;5016551;28;20415;-80
2022/01/16 06:39:29;;;;;;;153.98;48.08;;;-0.90;99.90;;;-1.37;69.42;99393.72;5000242;28;20105;-80
2022/01/16 06:41:56;;;;;;;132.40;50.80;;;-0.80;99.90;;;-1.49;69.59;99402.34;5003841;28;20044;-80
2022/01/16 06:44:22;;;;;;;184.52;52.05;;;-0.90;99.90;;;-1.61;69.65;99391.28;5030531;28;20045;-80
2022/01/16 06:46:48;;;;;;;146.45;48.33;;;-1.00;99.90;;;-1.63;69.78;99390.66;5018626;28;20097;-80
2022/01/16 06:49:14;;;;;;;967.80;109.82;;;-1.00;99.90;;;-1.52;69.40;99384.09;5013810;28;20049;-80
2022/01/16 06:51:40;;;;;;;188.60;51.28;;;-1.00;99.90;;;-1.54;69.43;99386.91;5007677;28;20525;-80
2022/01/16 06:54:07;;;;;;;138.07;50.75;;;-1.00;99.90;;;-1.70;70.01;99382.56;5029282;28;20037;-80
2022/01/16 06:56:33;;;;;;;149.80;55.28;;;-1.10;99.90;;;-1.64;69.79;99392.47;5018759;28;20049;-80
2022/01/16 06:59:00;;;;;;;214.18;57.85;;;-1.00;99.90;;;-1.67;69.88;99390.19;5015635;28;20048;-80
2022/01/16 07:01:29;;;;;;;187.02;52.72;;;-1.00;99.90;;;-1.76;70.15;99380.63;5035924;28;20044;-80
2022/01/16 07:03:55;;;;;;;228.93;54.97;;;-1.00;99.90;;;-1.61;69.66;99378.00;5030774;28;20089;-80
2022/01/16 07:06:22;;;;;;;576.10;81.45;;;-1.00;99.90;;;-1.58;69.85;99374.97;4999786;28;20049;-80
2022/01/16 07:08:48;;;;;;;204.32;56.35;;;-1.00;99.90;;;-1.44;69.78;99357.38;5030362;28;20035;-80
2022/01/16 07:11:15;;;;;;;156.30;49.83;;;-0.90;99.90;;;-1.44;69.07;99357.38;4999853;28;20040;-80
2022/01/16 07:13:40;;;;;;;283.98;58.88;;;-0.90;99.90;;;-1.50;69.27;99348.31;5030012;28;20096;-80
2022/01/16 07:16:06;;;;;;;221.95;56.45;;;-0.90;99.90;;;-1.46;68.95;99344.25;5033740;28;20052;-80
2022/01/16 07:18:39;;;;;;;152.25;51.88;;;-0.80;99.90;;;-1.39;68.98;99345.19;5019491;28;20637;-80
2022/01/16 07:21:12;;;;;;;171.90;53.50;;;-0.80;99.90;;;-1.31;68.31;99339.75;5002979;28;20037;-80
2022/01/16 07:23:46;;;;;;;170.13;52.03;;;-0.80;99.90;;;-1.22;68.68;99337.00;5018549;28;20033;-80
2022/01/16 07:26:15;;;;;;;154.32;50.55;;;-0.70;99.90;;;-1.25;68.45;99338.19;5033912;28;20073;-80
2022/01/16 07:28:41;;;;;;;189.75;52.10;;;-0.60;99.90;;;-1.23;68.30;99346.00;5049427;28;20037;-80
2022/01/16 07:31:07;;;;;;;145.40;47.47;;;-0.60;99.90;;;-1.16;68.09;99350.41;5018257;28;20538;-80
2022/01/16 07:33:33;;;;;;;633.88;75.82;;;-0.60;99.90;;;-1.15;68.00;99348.56;5035437;28;20116;-80
2022/01/16 07:35:59;;;;;;;173.75;52.92;;;-0.50;99.90;;;-1.17;67.69;99351.44;5003890;28;20124;-80
2022/01/16 07:38:24;;;;;;;152.68;51.05;;;-0.50;99.90;;;-1.14;68.16;99353.72;5036733;28;20041;-80
2022/01/16 07:40:50;;;;;;;185.77;53.17;;;-0.50;99.90;;;-0.95;68.30;99360.31;5016077;28;20116;-80
2022/01/16 07:43:17;;;;;;;176.65;64.47;;;-0.30;99.90;;;-0.76;68.39;99352.75;5034060;28;20045;-80
2022/01/16 07:45:42;;;;;;;250.20;64.00;;;-0.20;99.90;;;-0.74;68.03;99348.06;5040174;28;20079;-80
2022/01/16 07:48:09;;;;;;;267.60;68.80;;;-0.10;99.90;;;-0.73;68.06;99347.88;5019911;28;20044;-80
2022/01/16 07:50:36;;;;;;;213.90;62.05;;;0.00;99.90;;;-0.76;67.32;99342.94;5007168;28;20041;-81
2022/01/16 07:53:02;;;;;;;191.52;60.28;;;0.00;99.90;;;-0.76;67.50;99331.44;5039589;28;20094;-80
2022/01/16 07:55:28;;;;;;;159.25;54.60;;;0.10;99.90;;;-0.72;67.39;99338.84;5025895;28;20051;-80
2022/01/16 07:57:55;;;;;;;137.95;50.70;;;0.10;99.90;;;-0.62;66.82;99338.56;5032496;28;20044;-80
2022/01/16 08:00:22;;;;;;;168.65;52.50;;;0.10;99.90;;;-0.54;67.02;99343.78;5003981;28;20602;-80
2022/01/16 08:02:49;;;;;;;444.25;65.13;;;0.10;99.90;;;-0.61;66.46;99352.69;5016519;28;20442;-80
2022/01/16 08:05:16;;;;;;;205.93;57.70;;;0.10;99.90;;;-0.63;66.75;99350.25;5035807;28;20036;-80
2022/01/16 08:07:42;;;;;;;183.30;52.25;;;0.10;99.90;;;-0.70;66.42;99342.16;5023362;28;20037;-80
2022/01/16 08:10:08;;;;;;;135.23;53.92;;;0.00;99.90;;;-0.60;66.83;99341.06;5035759;28;20499;-80
2022/01/16 08:12:35;;;;;;;148.70;49.67;;;0.00;99.90;;;-0.55;66.76;99347.47;5021638;28;20448;-80
2022/01/16 08:15:01;;;;;;;147.13;50.72;;;0.10;99.90;;;-0.58;66.92;99347.03;5035141;28;20055;-80
2022/01/16 08:17:27;;;;;;;139.60;50.15;;;0.10;99.90;;;-0.58;67.02;99339.03;5017981;28;20035;-80
2022/01/16 08:19:53;;;;;;;197.40;56.45;;;0.10;99.90;;;-0.63;67.01;99336.94;5037854;28;20504;-80
2022/01/16 08:22:19;;;;;;;169.80;54.22;;;0.20;99.90;;;-0.49;67.31;99324.56;5022474;28;20132;-80
2022/01/16 08:24:45;;;;;;;136.05;49.85;;;0.30;99.90;;;-0.28;67.44;99318.41;5004560;28;20084;-80
2022/01/16 08:27:13;;;;;;;165.40;54.47;;;0.50;99.90;;;0.04;67.10;99324.25;5038425;28;20120;-80
2022/01/16 08:29:39;;;;;;;136.55;52.78;;;0.60;99.90;;;0.10;66.85;99318.97;5015093;28;20064;-80
2022/01/16 08:32:06;;;;;;;506.73;72.95;;;0.80;99.90;;;0.20;66.63;99315.94;5018815;28;20103;-80
2022/01/16 08:34:32;;;;;;;138.55;55.13;;;0.80;99.90;;;0.33;65.97;99309.88;5031680;28;20045;-80
2022/01/16 08:36:58;;;;;;;120.28;46.72;;;0.90;99.90;;;0.38;65.92;99304.78;5028236;28;20367;-80
2022/01/16 08:39:26;;;;;;;134.32;46.90;;;1.00;99.90;;;0.10;65.42;99296.78;5034368;28;20473;-80
2022/01/16 08:41:52;;;;;;;139.95;45.67;;;1.00;99.90;;;-0.03;65.07;99284.97;5031853;28;20069;-80
2022/01/16 08:44:19;;;;;;;174.25;45.33;;;0.90;99.90;;;-0.02;64.61;99283.97;5022765;28;20471;-80
2022/01/16 08:46:46;;;;;;;127.22;44.38;;;0.80;99.90;;;0.13;64.90;99278.56;5053142;28;20455;-80
2022/01/16 08:49:12;;;;;;;164.90;48.88;;;0.90;99.90;;;0.40;65.56;99262.72;5067002;28;20544;-81
2022/01/16 08:51:38;;;;;;;117.75;50.53;;;1.00;99.90;;;0.77;65.59;99264.13;5022474;28;20102;-81
2022/01/16 08:54:05;;;;;;;117.95;46.65;;;1.30;99.90;;;1.04;65.43;99257.06;5036058;28;20041;-80
2022/01/16 08:56:31;;;;;;;133.23;45.13;;;1.60;99.90;;;1.29;64.80;99259.16;5020508;28;20124;-81
2022/01/16 08:58:57;;;;;;;114.32;48.10;;;1.90;99.90;;;1.33;64.57;99248.91;5023593;28;20087;-81
2022/01/16 09:01:23;;;;;;;1241.90;125.28;;;2.10;99.90;;;1.54;64.31;99251.41;5005255;28;20037;-81
2022/01/16 09:03:49;;;;;;;238.02;59.25;;;2.30;99.90;;;1.77;64.11;99242.97;5059057;28;20093;-81
2022/01/16 09:06:16;;;;;;;115.32;53.75;;;2.40;99.90;;;1.60;63.95;99245.22;5038646;28;20076;-81
2022/01/16 09:08:42;;;;;;;104.82;47.75;;;2.50;99.90;;;1.59;62.66;99248.13;5021013;28;20111;-81
2022/01/16 09:11:08;;;;;;;169.63;50.42;;;2.50;99.90;;;1.47;63.17;99240.69;5020908;28;20121;-81
2022/01/16 09:13:34;;;;;;;125.13;50.25;;;2.40;99.90;;;1.41;63.00;99221.97;5022320;28;20060;-81
2022/01/16 09:16:00;;;;;;;128.65;56.97;;;2.30;99.90;;;1.56;62.60;99224.47;5035161;28;20041;-81
2022/01/16 09:18:26;;;;;;;154.13;59.78;;;2.30;99.90;;;1.50;62.82;99221.59;5035123;28;20488;-81
2022/01/16 09:20:53;;;;;;;126.50;50.90;;;2.30;99.90;;;1.32;62.74;99223.19;5035377;28;20045;-81
2022/01/16 09:23:19;;;;;;;111.85;47.13;;;2.30;99.90;;;1.27;63.06;99218.44;5019938;28;20045;-81
2022/01/16 09:25:45;;;;;;;126.72;50.13;;;2.20;99.90;;;1.47;63.33;99213.94;5000643;28;20578;-81
2022/01/16 09:28:11;;;;;;;148.05;55.03;;;2.20;99.90;;;1.51;63.04;99214.38;5000332;28;20067;-81
2022/01/16 09:30:37;;;;;;;125.00;53.08;;;2.30;99.90;;;1.46;63.26;99212.31;5038942;28;20033;-81
2022/01/16 09:33:03;;;;;;;139.45;55.92;;;2.30;99.90;;;1.65;63.68;99209.84;5054370;28;20045;-81
2022/01/16 09:35:33;;;;;;;152.07;57.00;;;2.30;99.90;;;1.81;63.31;99196.09;5015404;28;20041;-82
2022/01/16 09:38:00;;;;;;;117.70;53.55;;;2.50;99.90;;;1.90;63.14;99204.69;5035826;28;20056;-81
2022/01/16 09:40:26;;;;;;;106.15;50.35;;;2.60;99.90;;;1.81;63.39;99201.44;5038284;28;20076;-81
2022/01/16 09:42:52;;;;;;;138.13;62.13;;;2.60;99.90;;;1.90;62.78;99197.50;5036045;28;20063;-81
2022/01/16 09:45:18;;;;;;;99.68;46.42;;;2.60;99.90;;;2.10;62.11;99193.97;5037722;28;20045;-82
2022/01/16 09:47:46;;;;;;;154.52;73.60;;;2.70;99.90;;;2.02;62.67;99187.00;4985569;28;20049;-82
2022/01/16 09:50:14;;;;;;;146.55;68.18;;;2.70;99.90;;;2.04;62.28;99179.59;5000457;28;20045;-82
2022/01/16 09:52:42;;;;;;;206.70;93.55;;;2.80;99.90;;;1.90;61.79;99180.63;5032755;28;20132;-83
2022/01/16 09:55:09;;;;;;;104.18;48.92;;;2.60;99.90;;;1.75;62.26;99175.50;5023947;28;20042;-82
2022/01/16 09:57:35;;;;;;;221.68;114.25;;;2.50;99.90;;;1.63;62.35;99163.78;5004957;28;20037;-82
2022/01/16 10:00:02;;;;;;;134.55;64.68;;;2.40;99.90;;;1.59;62.65;99166.03;5036724;28;20044;-83
2022/01/16 10:02:28;;;;;;;150.13;69.28;;;2.30;99.90;;;1.56;62.08;99160.31;5019603;28;20045;-82
2022/01/16 10:04:54;;;;;;;176.82;92.03;;;2.20;99.90;;;1.46;62.47;99155.38;5033987;28;20043;-82
2022/01/16 10:07:20;;;;;;;556.60;303.88;;;2.10;99.90;;;1.35;63.04;99161.31;5038636;28;20124;-83
2022/01/16 10:10:09;;;;;;;128.68;61.13;;;2.10;99.90;;;1.33;63.17;99152.69;5003854;28;20036;-83
2022/01/16 10:12:40;;;;;;;171.82;82.03;;;2.00;99.90;;;1.50;63.16;99145.88;5038033;28;20044;-83
2022/01/16 10:15:20;;;;;;;125.68;59.45;;;2.00;99.90;;;1.56;62.68;99142.41;5022241;28;20412;-83
2022/01/16 10:17:49;;;;;;;110.43;55.05;;;2.10;99.90;;;1.60;63.31;99137.44;5037585;28;20131;-83
2022/01/16 10:20:18;;;;;;;111.30;50.95;;;2.10;99.90;;;1.67;63.44;99133.75;5024127;28;20496;-83
2022/01/16 10:22:50;;;;;;;104.90;46.50;;;2.20;99.90;;;1.67;63.60;99130.25;5020228;28;20044;-83
2022/01/16 10:25:18;;;;;;;;;;;2.20;99.90;;;1.67;62.98;99125.72;5018111;28;20057;-83
2022/01/16 10:27:45;;;;;;;87.65;43.20;;;2.20;99.90;;;1.76;63.12;99123.66;5037046;28;19935;-83
2022/01/16 10:30:15;;;;;;;121.32;53.40;;;2.20;99.90;;;1.84;62.89;99117.28;5041666;28;20066;-83
2022/01/16 10:32:46;;;;;;;112.25;51.78;;;2.30;99.90;;;1.88;63.08;99116.66;5022810;28;20037;-82
2022/01/16 10:35:28;;;;;;;113.32;51.72;;;2.30;99.90;;;1.92;63.67;99112.50;5020648;28;20090;-83
2022/01/16 10:37:54;;;;;;;123.07;55.05;;;2.40;99.90;;;1.95;63.47;99111.25;5002659;28;20055;-83
2022/01/16 10:40:23;;;;;;;120.78;52.10;;;2.40;99.90;;;2.04;63.91;99106.53;5012968;28;20452;-82
2022/01/16 10:42:54;;;;;;;110.95;52.15;;;2.50;99.90;;;2.15;64.07;99101.31;5019357;28;20502;-82
2022/01/16 10:45:25;;;;;;;113.93;50.65;;;2.60;99.90;;;2.28;64.29;99089.72;5019432;28;20437;-82
2022/01/16 10:47:53;;;;;;;108.10;47.08;;;2.70;99.90;;;2.28;63.55;99092.41;5036761;28;20063;-82
2022/01/16 10:50:24;;;;;;;105.00;49.97;;;2.70;99.90;;;2.35;63.93;99085.19;5025127;28;20526;-82
2022/01/16 10:53:00;;;;;;;111.03;47.55;;;2.80;99.90;;;2.48;63.40;99075.44;5019039;28;20055;-82